Time;durP1;ratioP1;P1;durP2;ratioP2;P2;SDS_P1;SDS_P2;PMS_P1;PMS_P2;Temp;Humidity;BMP_temperature;BMP_pressure;BME280_temperature;BME280_humidity;BME280_pressure;Samples;Min_cycle;Max_cycle;Signal;HPM_P1;HPM_P2
2021/12/09 11:30:15;;;;;;;19.33;7.63;;;;;;;2.77;98.95;100240.84;5289941;28;20364;-75
2021/12/09 11:32:59;;;;;;;25.43;8.30;;;;;;;2.86;98.94;100239.66;5287000;28;20064;-76
2021/12/09 11:35:34;;;;;;;15.15;7.82;;;;;;;2.88;98.70;100237.03;5290213;28;20021;-75
2021/12/09 11:38:19;;;;;;;10.00;7.10;;;;;;;2.96;99.29;100247.06;5290518;28;20028;-72
2021/12/09 11:40:56;;;;;;;11.45;6.25;;;;;;;3.01;98.88;100237.41;5290910;28;20035;-72
2021/12/09 11:43:29;;;;;;;10.20;6.23;;;;;;;3.03;99.06;100238.19;5284979;28;20047;-73
2021/12/09 11:46:00;;;;;;;14.63;6.73;;;;;;;3.12;99.11;100237.00;5289651;28;20074;-73
2021/12/09 11:48:32;;;;;;;8.57;6.43;;;;;;;3.17;99.00;100237.66;5290272;28;20359;-78
2021/12/09 11:51:04;;;;;;;17.57;7.30;;;;;;;3.24;98.00;100235.66;5289750;28;20025;-75
2021/12/09 11:53:38;;;;;;;17.17;7.50;;;;;;;3.32;98.22;100236.22;5287903;28;20432;-75
2021/12/09 12:13:45;;;;;;;8.50;5.10;;;;;;;3.51;97.44;100217.34;5286166;28;20045;-74
2021/12/09 12:17:43;;;;;;;11.43;5.77;;;;;;;3.56;97.90;100215.41;5289959;28;20028;-73
2021/12/09 12:35:53;;;;;;;7.53;4.70;;;;;;;3.66;97.51;100197.78;5288619;28;20040;-75
2021/12/09 12:40:41;;;;;;;7.57;4.57;;;;;;;3.70;97.34;100203.66;5281676;28;20073;-75
2021/12/09 12:43:39;;;;;;;14.18;6.50;;;;;;;3.75;97.50;100202.56;5272317;28;20505;-73
2021/12/09 12:46:39;;;;;;;8.37;4.27;;;;;;;3.81;97.02;100206.66;5274000;28;20036;-73
2021/12/09 12:51:59;;;;;;;8.60;5.03;;;;;;;3.88;95.93;100207.22;5272379;28;20075;-75
2021/12/09 12:54:43;;;;;;;10.33;4.80;;;;;;;3.87;96.66;100208.97;5273127;28;20047;-72
2021/12/09 12:57:34;;;;;;;10.02;5.75;;;;;;;3.92;96.35;100210.53;5270750;28;20029;-75
2021/12/09 13:00:14;;;;;;;11.47;5.37;;;;;;;3.88;96.53;100204.63;5273495;28;20029;-74
2021/12/09 13:13:57;;;;;;;11.32;6.55;;;;;;;3.90;96.32;100214.94;5270454;28;20024;-77
2021/12/09 13:19:21;;;;;;;13.67;6.73;;;;;;;3.94;96.24;100206.97;5253907;28;20037;-75
2021/12/09 13:22:00;;;;;;;11.77;6.23;;;;;;;3.92;96.23;100197.56;5257833;28;20383;-75
2021/12/09 13:24:51;;;;;;;16.63;7.20;;;;;;;3.96;95.20;100196.56;5273769;28;20062;-75
2021/12/09 13:27:47;;;;;;;15.03;8.30;;;;;;;3.89;96.18;100197.72;5270937;28;20028;-75
2021/12/09 13:30:39;;;;;;;11.47;7.10;;;;;;;3.91;96.89;100201.91;5272127;28;20438;-74
2021/12/09 13:33:20;;;;;;;16.17;6.57;;;;;;;3.99;95.79;100206.78;5271078;28;20267;-74
2021/12/09 13:47:38;;;;;;;13.87;6.43;;;;;;;3.90;96.24;100200.22;5268730;28;20024;-73
2021/12/09 13:55:39;;;;;;;14.93;6.22;;;;;;;3.96;96.88;100210.31;5273308;28;20055;-75
2021/12/09 13:58:14;;;;;;;14.47;6.27;;;;;;;3.98;96.62;100198.16;5272801;28;21177;-74
2021/12/09 14:00:46;;;;;;;;;;;;;;;4.13;96.57;100207.94;5273372;28;20029;-74
2021/12/09 14:03:24;;;;;;;14.13;6.73;;;;;;;4.05;96.17;100209.09;5270930;28;19920;-74
2021/12/09 14:06:07;;;;;;;20.77;7.23;;;;;;;4.04;96.38;100201.38;5273050;28;20111;-73
2021/12/09 14:08:49;;;;;;;10.17;6.67;;;;;;;4.13;95.74;100207.94;5252491;28;20517;-73
2021/12/09 14:11:30;;;;;;;16.30;6.13;;;;;;;4.09;96.22;100208.06;5250669;28;20417;-73
2021/12/09 14:14:10;;;;;;;13.27;6.17;;;;;;;4.13;95.76;100208.78;5272214;28;20490;-73
2021/12/09 14:17:01;;;;;;;12.63;5.83;;;;;;;4.16;95.98;100210.38;5260332;28;20029;-72
2021/12/09 14:22:07;;;;;;;14.63;5.80;;;;;;;4.11;96.12;100214.03;5257816;28;20140;-73
2021/12/09 14:24:42;;;;;;;14.20;7.73;;;;;;;4.13;95.57;100210.53;5272465;28;20131;-72
2021/12/09 14:27:17;;;;;;;16.53;6.33;;;;;;;4.17;95.68;100212.91;5272408;28;20029;-71
2021/12/09 14:29:53;;;;;;;14.95;6.00;;;;;;;4.14;95.79;100207.03;5271828;28;20136;-72
2021/12/09 14:32:28;;;;;;;19.20;7.67;;;;;;;4.09;95.63;100209.81;5268786;28;20021;-73
2021/12/09 14:35:04;;;;;;;11.95;5.28;;;;;;;4.20;95.40;100217.13;5273106;28;20028;-73
2021/12/09 14:37:36;;;;;;;15.40;6.17;;;;;;;4.08;96.34;100213.31;5272363;28;20464;-76
2021/12/09 14:40:13;;;;;;;15.67;5.97;;;;;;;4.13;96.17;100213.97;5273180;28;20773;-74
2021/12/09 14:43:14;;;;;;;16.13;6.50;;;;;;;4.14;96.38;100217.41;5269516;28;20025;-74
2021/12/09 14:46:08;;;;;;;16.83;6.27;;;;;;;4.18;96.49;100221.53;5268743;28;20031;-75
2021/12/09 14:48:46;;;;;;;12.90;5.57;;;;;;;4.13;96.85;100226.91;5273065;28;20055;-75
2021/12/09 14:51:24;;;;;;;18.30;6.03;;;;;;;4.16;96.62;100220.75;5270307;28;20417;-73
2021/12/09 14:54:09;;;;;;;16.90;8.67;;;;;;;4.19;96.77;100225.81;5273016;28;20626;-74
2021/12/09 14:56:41;;;;;;;;;;;;;;;4.30;96.58;100222.75;5271534;28;20387;-74
2021/12/09 14:59:15;;;;;;;16.00;5.03;;;;;;;4.23;96.45;100222.19;5271702;28;20349;-71
2021/12/09 15:02:09;;;;;;;20.05;7.50;;;;;;;4.22;96.36;100216.13;5269893;28;20041;-71
2021/12/09 15:04:45;;;;;;;12.83;6.43;;;;;;;4.23;96.51;100220.44;5272758;28;20012;-72
2021/12/09 15:07:37;;;;;;;16.53;6.60;;;;;;;4.21;96.21;100218.81;5271960;28;20021;-72
2021/12/09 15:10:13;;;;;;;16.60;6.10;;;;;;;4.20;96.17;100223.16;5271151;28;20647;-72
2021/12/09 15:12:46;;;;;;;18.93;5.70;;;;;;;4.11;96.69;100197.63;5268896;28;20041;-74
2021/12/09 15:15:21;;;;;;;13.87;5.73;;;;;;;4.20;96.59;100217.97;5272346;28;20077;-72
2021/12/09 15:17:53;;;;;;;17.40;6.63;;;;;;;4.21;96.68;100214.47;5272047;28;20059;-73
2021/12/09 15:20:40;;;;;;;14.73;5.73;;;;;;;4.19;96.97;100216.28;5271928;28;20498;-73
2021/12/09 15:26:27;;;;;;;15.50;7.00;;;;;;;4.22;96.55;100207.53;5271874;28;20037;-73
2021/12/09 15:29:14;;;;;;;13.00;6.87;;;;;;;4.22;97.03;100199.75;5272072;28;20059;-74
2021/12/09 15:31:58;;;;;;;14.80;6.53;;;;;;;4.23;96.59;100193.66;5268753;28;20029;-75
2021/12/09 15:34:41;;;;;;;17.70;7.13;;;;;;;4.22;96.64;100192.00;5271066;28;20029;-73
2021/12/09 15:37:16;;;;;;;21.97;7.03;;;;;;;4.20;97.07;100191.22;5270511;28;20078;-74
2021/12/09 15:39:49;;;;;;;13.55;6.38;;;;;;;4.20;96.88;100191.22;5270921;28;20620;-75
2021/12/09 15:42:25;;;;;;;22.30;7.00;;;;;;;4.19;97.27;100189.53;5269454;28;20668;-75
2021/12/09 15:45:02;;;;;;;17.17;6.87;;;;;;;4.25;96.87;100210.00;5272759;28;20052;-74
2021/12/09 15:47:35;;;;;;;18.97;8.03;;;;;;;4.35;96.50;100206.09;5271524;28;20134;-74
2021/12/09 15:50:10;;;;;;;22.37;8.03;;;;;;;4.30;96.89;100202.84;5259106;28;20033;-75
2021/12/09 15:52:52;;;;;;;20.57;7.03;;;;;;;4.31;96.17;100204.53;5272078;28;20025;-79
2021/12/09 15:55:32;;;;;;;14.93;7.63;;;;;;;4.30;96.94;100208.03;5272983;28;20546;-82
2021/12/09 15:58:07;;;;;;;17.30;6.97;;;;;;;4.30;96.79;100195.09;5270899;28;20597;-74
2021/12/09 16:00:39;;;;;;;15.93;8.30;;;;;;;4.30;96.99;100197.69;5272406;28;20033;-77
2021/12/09 16:03:10;;;;;;;29.17;9.10;;;;;;;4.29;96.58;100185.63;5270059;28;20020;-76
2021/12/09 16:05:42;;;;;;;14.20;7.40;;;;;;;4.31;97.05;100193.34;5273028;28;20032;-74
2021/12/09 16:08:13;;;;;;;19.23;9.50;;;;;;;4.37;96.93;100180.09;5272632;28;20025;-74
2021/12/09 16:10:47;;;;;;;19.73;8.07;;;;;;;4.32;97.05;100187.22;5268604;28;20024;-75
2021/12/09 16:13:18;;;;;;;22.23;8.63;;;;;;;4.36;96.95;100187.03;5268273;28;20008;-73
2021/12/09 16:16:02;;;;;;;21.63;8.17;;;;;;;4.29;96.96;100159.72;5274240;28;20528;-79
2021/12/09 16:18:40;;;;;;;24.00;7.73;;;;;;;4.41;97.11;100184.25;5276252;28;20013;-77
2021/12/09 16:21:16;;;;;;;21.03;8.33;;;;;;;4.39;97.10;100182.63;5274726;28;20061;-78
2021/12/09 16:23:49;;;;;;;21.30;9.47;;;;;;;4.30;96.99;100189.91;5275753;28;20016;-79
2021/12/09 16:26:23;;;;;;;32.07;15.20;;;;;;;4.32;97.38;100190.69;5275846;28;20111;-77
2021/12/09 16:28:54;;;;;;;20.17;8.90;;;;;;;4.27;97.58;100182.25;5275329;28;20124;-75
2021/12/09 16:31:26;;;;;;;22.97;8.73;;;;;;;4.32;97.64;100179.47;5272906;28;20111;-77
2021/12/09 16:33:57;;;;;;;22.23;8.10;;;;;;;4.38;97.76;100178.34;5276166;28;20020;-79
2021/12/09 16:36:28;;;;;;;15.60;8.53;;;;;;;4.39;97.30;100174.84;5275566;28;20111;-78
2021/12/09 16:38:59;;;;;;;22.33;9.43;;;;;;;4.27;97.04;100145.97;5273982;28;20059;-76
2021/12/09 16:41:31;;;;;;;19.13;8.90;;;;;;;4.39;97.12;100164.47;5271660;28;20111;-76
2021/12/09 16:44:03;;;;;;;20.90;8.20;;;;;;;4.38;97.31;100165.38;5273980;28;20467;-76
2021/12/09 16:46:35;;;;;;;22.97;8.40;;;;;;;4.42;96.97;100170.34;5274821;28;20055;-76
2021/12/09 16:49:06;;;;;;;21.77;8.77;;;;;;;4.48;96.68;100174.44;5275718;28;20197;-76
2021/12/09 16:51:38;;;;;;;24.60;9.27;;;;;;;4.39;97.13;100167.91;5271490;28;20037;-76
2021/12/09 16:54:14;;;;;;;16.97;7.80;;;;;;;4.43;97.09;100174.63;5275126;28;20205;-74
2021/12/09 16:57:10;;;;;;;23.00;9.20;;;;;;;4.44;96.81;100176.31;5273459;28;20017;-75
2021/12/09 16:59:41;;;;;;;;;;;;;;;4.55;96.82;100175.00;5273781;28;20082;-74
2021/12/09 17:02:13;;;;;;;16.57;8.70;;;;;;;4.46;96.69;100178.84;5271812;28;19966;-73
2021/12/09 17:04:50;;;;;;;24.83;9.93;;;;;;;4.46;96.93;100181.44;5274719;28;20031;-73
2021/12/09 17:07:22;;;;;;;20.47;8.30;;;;;;;4.42;97.17;100169.50;5274439;28;20596;-74
2021/12/09 17:09:53;;;;;;;25.23;8.77;;;;;;;4.42;97.18;100185.91;5275168;28;20124;-75
2021/12/09 17:12:27;;;;;;;24.43;9.67;;;;;;;4.43;97.35;100178.97;5271010;28;20091;-73
2021/12/09 17:14:58;;;;;;;20.20;8.80;;;;;;;4.43;97.43;100182.41;5275199;28;20524;-74
2021/12/09 17:17:29;;;;;;;21.07;9.27;;;;;;;4.36;97.59;100175.81;5273450;28;20275;-75
2021/12/09 17:20:02;;;;;;;21.47;9.03;;;;;;;4.33;97.91;100175.94;5275002;28;20052;-74
2021/12/09 17:22:33;;;;;;;22.87;10.13;;;;;;;4.29;98.08;100170.06;5271095;28;20029;-75
2021/12/09 17:25:08;;;;;;;20.63;9.50;;;;;;;4.28;98.31;100178.75;5274255;28;20040;-74
2021/12/09 17:27:40;;;;;;;21.15;9.35;;;;;;;4.27;98.29;100176.22;5272914;28;20554;-73
2021/12/09 17:30:12;;;;;;;25.23;11.07;;;;;;;4.31;98.24;100182.97;5274151;28;20028;-72
2021/12/09 17:32:46;;;;;;;27.10;10.10;;;;;;;4.32;98.49;100185.50;5271172;28;20024;-74
2021/12/09 17:35:17;;;;;;;22.60;9.00;;;;;;;4.27;98.41;100179.66;5274709;28;20063;-74
2021/12/09 17:37:50;;;;;;;24.60;10.23;;;;;;;4.35;98.25;100179.31;5273365;28;20052;-74
2021/12/09 17:40:22;;;;;;;26.47;9.60;;;;;;;4.38;98.08;100186.94;5274466;28;20024;-77
2021/12/09 17:42:54;;;;;;;26.23;9.37;;;;;;;4.39;98.12;100180.03;5270715;28;20102;-78
2021/12/09 17:45:27;;;;;;;25.00;10.43;;;;;;;4.38;98.26;100178.34;5273497;28;20098;-77
2021/12/09 17:48:01;;;;;;;33.93;10.10;;;;;;;4.38;98.36;100173.97;5273781;28;20037;-77
2021/12/09 17:50:34;;;;;;;19.88;8.80;;;;;;;4.36;98.16;100176.66;5274915;28;20081;-75
2021/12/09 17:53:07;;;;;;;20.53;9.70;;;;;;;4.46;97.56;100171.06;5271556;28;20025;-76
2021/12/09 17:55:38;;;;;;;25.60;10.67;;;;;;;4.41;97.88;100171.28;5274214;28;20609;-79
2021/12/09 17:58:10;;;;;;;24.50;10.03;;;;;;;4.36;98.27;100174.06;5272933;28;20368;-78
2021/12/09 18:00:42;;;;;;;33.40;10.50;;;;;;;4.40;98.06;100179.94;5272063;28;20033;-83
2021/12/09 18:03:14;;;;;;;23.17;9.57;;;;;;;4.34;98.41;100181.09;5271614;28;20081;-75
2021/12/09 18:05:45;;;;;;;19.57;10.40;;;;;;;4.28;98.32;100170.97;5273452;28;20028;-74
2021/12/09 18:08:18;;;;;;;23.20;9.37;;;;;;;4.41;98.00;100178.22;5268267;28;20028;-72
2021/12/09 18:10:51;;;;;;;21.07;9.73;;;;;;;4.36;98.09;100163.69;5271146;28;20516;-74
2021/12/09 18:13:24;;;;;;;19.03;9.57;;;;;;;4.39;98.27;100169.66;5270009;28;20111;-78
2021/12/09 18:15:58;;;;;;;25.67;10.03;;;;;;;4.35;98.37;100161.16;5273007;28;20028;-77
2021/12/09 18:18:29;;;;;;;24.52;10.93;;;;;;;4.39;97.97;100170.50;5272932;28;20043;-75
2021/12/09 18:21:01;;;;;;;27.33;10.80;;;;;;;4.36;98.52;100171.47;5273233;28;20024;-75
2021/12/09 18:23:33;;;;;;;21.70;10.43;;;;;;;4.40;98.21;100154.03;5270863;28;20037;-74
2021/12/09 18:26:04;;;;;;;25.50;11.23;;;;;;;4.44;98.07;100154.72;5271759;28;20024;-74
2021/12/09 18:28:35;;;;;;;25.93;11.33;;;;;;;4.38;97.86;100147.22;5269784;28;20599;-74
2021/12/09 18:31:07;;;;;;;27.57;11.03;;;;;;;4.43;98.05;100156.47;5270233;28;20490;-74
2021/12/09 18:33:39;;;;;;;26.37;11.20;;;;;;;4.41;98.14;100158.31;5269711;28;20479;-74
2021/12/09 18:36:15;;;;;;;21.10;11.00;;;;;;;4.31;98.23;100159.63;5272678;28;20115;-72
2021/12/09 18:38:54;;;;;;;26.33;12.63;;;;;;;4.33;98.01;100162.97;5271255;28;20028;-72
2021/12/09 18:41:28;;;;;;;26.50;11.47;;;;;;;4.21;98.77;100157.44;5272759;28;20039;-74
2021/12/09 18:43:59;;;;;;;24.73;10.18;;;;;;;4.25;98.09;100155.56;5272078;28;20089;-75
2021/12/09 18:46:31;;;;;;;25.53;12.40;;;;;;;4.23;98.43;100147.84;5271452;28;20033;-73
2021/12/09 18:49:03;;;;;;;22.93;10.93;;;;;;;4.23;98.21;100162.56;5287542;28;20034;-74
2021/12/09 18:51:36;;;;;;;26.50;12.47;;;;;;;4.17;98.59;100142.09;5293619;28;20047;-74
2021/12/09 18:54:10;;;;;;;26.67;11.30;;;;;;;4.17;98.58;100144.69;5288784;28;20016;-74
2021/12/09 18:56:41;;;;;;;19.53;11.93;;;;;;;4.12;98.46;100144.88;5272687;28;20017;-73
2021/12/09 18:59:14;;;;;;;22.23;11.57;;;;;;;4.10;98.55;100146.72;5271718;28;20787;-72
2021/12/09 19:01:45;;;;;;;30.50;12.47;;;;;;;4.06;98.75;100148.59;5270789;28;20017;-71
2021/12/09 19:04:18;;;;;;;26.67;12.90;;;;;;;4.08;98.47;100141.59;5277050;28;20090;-71
2021/12/09 19:06:50;;;;;;;27.80;12.07;;;;;;;4.13;98.36;100138.81;5274424;28;20020;-71
2021/12/09 19:09:21;;;;;;;28.20;11.33;;;;;;;4.11;98.83;100144.06;5273187;28;20039;-69
2021/12/09 19:11:53;;;;;;;22.77;10.77;;;;;;;4.16;99.06;100143.00;5271831;28;20039;-70
2021/12/09 19:14:25;;;;;;;23.97;11.27;;;;;;;4.13;98.99;100131.03;5270861;28;20059;-70
2021/12/09 19:17:00;;;;;;;25.60;10.93;;;;;;;4.21;98.98;100136.72;5272087;28;20044;-69
2021/12/09 19:19:32;;;;;;;24.20;12.70;;;;;;;4.26;98.88;100136.50;5271470;28;20036;-69
2021/12/09 19:22:03;;;;;;;26.13;11.87;;;;;;;4.24;99.22;100135.75;5272137;28;20029;-69
2021/12/09 19:24:35;;;;;;;30.07;12.03;;;;;;;4.26;99.28;100127.91;5272380;28;20033;-68
2021/12/09 19:27:06;;;;;;;24.50;10.73;;;;;;;4.25;98.84;100116.69;5270751;28;20427;-68
2021/12/09 19:29:37;;;;;;;26.57;12.50;;;;;;;4.29;98.71;100127.75;5271365;28;20237;-68
2021/12/09 19:32:09;;;;;;;25.23;11.33;;;;;;;4.30;98.83;100125.09;5269659;28;20028;-69
2021/12/09 19:34:40;;;;;;;26.03;11.03;;;;;;;4.30;98.65;100119.06;5272184;28;20029;-68
2021/12/09 19:37:11;;;;;;;21.30;10.73;;;;;;;4.31;98.82;100112.97;5271734;28;20040;-68
2021/12/09 19:39:43;;;;;;;19.53;10.33;;;;;;;4.26;98.47;100105.38;5272426;28;20032;-69
2021/12/09 19:42:14;;;;;;;21.30;10.77;;;;;;;4.31;98.55;100105.19;5271345;28;20075;-69
2021/12/09 19:44:45;;;;;;;20.83;11.07;;;;;;;4.31;98.57;100113.78;5271781;28;20037;-69
2021/12/09 19:47:17;;;;;;;27.20;12.60;;;;;;;4.35;98.52;100107.56;5271295;28;20025;-68
2021/12/09 19:49:48;;;;;;;20.33;9.90;;;;;;;4.40;98.61;100109.13;5272196;28;20033;-70
2021/12/09 19:52:20;;;;;;;20.80;9.30;;;;;;;4.40;98.64;100101.34;5272433;28;20490;-69
2021/12/09 19:54:52;;;;;;;36.07;11.60;;;;;;;4.38;98.48;100098.78;5262407;28;20591;-70
2021/12/09 19:57:23;;;;;;;23.73;10.57;;;;;;;4.44;98.43;100095.09;5263101;28;20037;-70
2021/12/09 19:59:54;;;;;;;26.20;10.70;;;;;;;4.35;98.32;100084.22;5264998;28;20029;-69
2021/12/09 20:02:26;;;;;;;20.63;11.57;;;;;;;4.45;98.33;100076.84;5264023;28;20056;-70
2021/12/09 20:04:57;;;;;;;25.97;12.07;;;;;;;4.35;98.38;100076.47;5264503;28;20032;-70
2021/12/09 20:07:28;;;;;;;25.50;12.17;;;;;;;4.34;98.25;100067.00;5264811;28;20031;-71
2021/12/09 20:10:01;;;;;;;32.63;11.13;;;;;;;4.38;98.16;100072.03;5264725;28;20037;-70
2021/12/09 20:12:32;;;;;;;26.00;11.57;;;;;;;4.44;97.74;100063.97;5262705;28;20157;-70
2021/12/09 20:15:06;;;;;;;20.43;9.80;;;;;;;4.46;98.16;100060.41;5264910;28;20077;-71
2021/12/09 20:17:38;;;;;;;25.43;10.37;;;;;;;4.48;97.64;100061.19;5263912;28;20024;-70
2021/12/09 20:20:12;;;;;;;21.90;8.87;;;;;;;4.51;97.74;100055.00;5264794;28;20059;-69
2021/12/09 20:22:45;;;;;;;;;;;;;;;4.62;97.59;100051.06;5263835;28;20036;-70
2021/12/09 20:25:20;;;;;;;27.47;9.03;;;;;;;4.42;97.31;100035.53;5263882;28;20007;-69
2021/12/09 20:27:52;;;;;;;21.57;8.70;;;;;;;4.48;97.27;100039.59;5263040;28;20048;-68
2021/12/09 20:30:26;;;;;;;24.97;10.10;;;;;;;4.50;97.21;100036.91;5263902;28;20509;-71
2021/12/09 20:32:58;;;;;;;25.40;8.33;;;;;;;4.48;96.71;100034.41;5264190;28;20036;-70
2021/12/09 20:35:29;;;;;;;19.27;8.50;;;;;;;4.43;96.76;100026.00;5263806;28;20101;-70
2021/12/09 20:38:03;;;;;;;23.30;9.40;;;;;;;4.44;97.28;100032.84;5262781;28;20056;-69
2021/12/09 20:40:35;;;;;;;23.37;8.07;;;;;;;4.42;96.41;100029.50;5262845;28;20063;-70
2021/12/09 20:43:06;;;;;;;22.93;7.60;;;;;;;4.36;96.59;100031.47;5263198;28;20477;-69
2021/12/09 20:45:37;;;;;;;27.50;9.37;;;;;;;4.35;96.41;100027.19;5263190;28;20063;-69
2021/12/09 20:48:09;;;;;;;22.47;8.13;;;;;;;4.33;96.02;100030.75;5272472;28;20024;-69
2021/12/09 20:50:42;;;;;;;22.03;7.40;;;;;;;4.17;96.27;100022.88;5274212;28;20037;-71
2021/12/09 20:53:14;;;;;;;22.07;8.30;;;;;;;4.04;96.64;100026.03;5275783;28;20463;-71
2021/12/09 20:55:50;;;;;;;22.70;8.53;;;;;;;4.11;97.11;100019.66;5274785;28;20031;-69
2021/12/09 20:58:23;;;;;;;26.17;8.70;;;;;;;4.06;96.79;100013.84;5273092;28;20690;-69
2021/12/09 21:00:56;;;;;;;26.03;8.53;;;;;;;4.04;96.96;100013.06;5273825;28;20060;-72
2021/12/09 21:03:28;;;;;;;22.33;7.67;;;;;;;3.93;97.01;99994.56;5273390;28;20055;-73
2021/12/09 21:06:02;;;;;;;25.20;9.00;;;;;;;3.92;96.69;100011.03;5274188;28;20103;-72
2021/12/09 21:08:34;;;;;;;19.02;6.95;;;;;;;3.96;97.10;100008.22;5274380;28;20029;-69
2021/12/09 21:11:06;;;;;;;19.40;7.70;;;;;;;3.74;96.83;99990.22;5274800;28;20035;-69
2021/12/09 21:13:38;;;;;;;20.43;7.00;;;;;;;3.82;97.00;99998.50;5274037;28;20012;-70
2021/12/09 21:16:10;;;;;;;18.67;6.60;;;;;;;3.71;96.60;99992.97;5274784;28;20437;-72
2021/12/09 21:18:45;;;;;;;27.93;10.17;;;;;;;3.74;96.56;99990.22;5275068;28;20025;-72
2021/12/09 21:21:17;;;;;;;25.48;9.27;;;;;;;3.55;96.70;99977.25;5274708;28;20040;-75
2021/12/09 21:23:48;;;;;;;26.43;9.00;;;;;;;3.62;96.90;99960.56;5274146;28;20138;-74
2021/12/09 21:26:22;;;;;;;27.37;8.70;;;;;;;3.63;96.83;99964.84;5273604;28;20078;-74
2021/12/09 21:28:54;;;;;;;26.23;9.20;;;;;;;3.51;96.59;99961.03;5273811;28;20098;-73
2021/12/09 21:31:26;;;;;;;23.23;7.47;;;;;;;3.48;96.90;99949.06;5274955;28;20024;-74
2021/12/09 21:34:03;;;;;;;22.03;8.13;;;;;;;3.44;96.85;99951.88;5275220;28;20478;-73
2021/12/09 21:36:43;;;;;;;19.17;7.80;;;;;;;3.41;96.86;99945.06;5267708;28;20024;-72
2021/12/09 21:39:17;;;;;;;22.53;8.00;;;;;;;3.46;96.88;99943.13;5260914;28;20032;-72
2021/12/09 21:41:49;;;;;;;24.23;9.05;;;;;;;3.37;96.64;99944.34;5267469;28;20021;-72
2021/12/09 21:44:20;;;;;;;22.93;7.53;;;;;;;3.37;96.57;99941.78;5273173;28;20486;-71
2021/12/09 21:46:51;;;;;;;21.63;8.63;;;;;;;3.43;96.63;99934.66;5272828;28;20029;-68
2021/12/09 21:49:23;;;;;;;19.70;7.50;;;;;;;3.24;96.77;99931.13;5272280;28;20028;-69
2021/12/09 21:51:55;;;;;;;22.23;7.63;;;;;;;3.33;96.34;99936.81;5272594;28;20033;-69
2021/12/09 21:54:26;;;;;;;21.73;8.60;;;;;;;3.12;97.03;99929.09;5264898;28;20008;-69
2021/12/09 21:56:58;;;;;;;21.57;7.53;;;;;;;3.13;96.98;99923.84;5269170;28;20465;-69
2021/12/09 21:59:32;;;;;;;23.10;9.17;;;;;;;3.23;96.75;99926.03;5271535;28;20479;-70
2021/12/09 22:02:04;;;;;;;19.88;8.45;;;;;;;3.09;96.97;99913.69;5274445;28;20060;-70
2021/12/09 22:04:35;;;;;;;17.40;8.10;;;;;;;3.12;96.94;99913.56;5280000;28;20025;-69
